Terminal Aerodrome Forecast
Issued by NWS Central Illinois

Home | Current Version | Previous Version | Text Only | Print | Product List | Glossary On
Versions: 1 2 3 4 5 6 7 8 9 10 11 12 13 14 15 16 17 18 19 20
793
FTUS43 KILX 091409 AAA
TAFSPI
TAF AMD
KSPI 091409Z 0914/1012 31014G20KT 4SM -SHSN BR OVC020
      TEMPO 0914/0916 2SM -SHSN BR
     FM091600 31016G24KT 6SM -SHSN OVC025
     FM100000 31015KT P6SM BKN025=

USA.gov is the U.S. government's official web portal to all federal, state and local government web resources and services.